Terminal Aerodrome Forecast
Issued by NWS

Home | Current Version | Previous Version | Text Only | Print | Product List | Glossary On
Versions: 1 2 3 4 5 6 7 8 9 10 11 12 13 14 15 16 17 18 19 20 21 22
000
FTUS43 KLSX 160237 AAA
TAFCPS
TAF AMD
KCPS 160237Z 1603/1624 31010KT P6SM -SHRA VCTS BKN050CB OVC090
      TEMPO 1603/1605 5SM SHRA OVC050
     FM160500 33012G19KT P6SM OVC025
     FM160700 33013G22KT P6SM OVC060
     FM161400 34012G19KT P6SM OVC030
     FM161900 34012KT P6SM FEW030=

USA.gov is the U.S. government's official web portal to all federal, state and local government web resources and services.